Terminal Aerodrome Forecast
Issued by NWS Albany, NY

Home | Current Version | Previous Version | Text Only | Print | Product List | Glossary On
Versions: 1 2 3 4 5 6 7 8 9 10 11 12 13 14 15 16 17 18 19 20 21
000
FTUS41 KALY 170831 AAA
TAFPOU
TAF AMD
KPOU 170831Z 1709/1806 00000KT 1 1/2SM -SN BR VV015
      TEMPO 1709/1712 3/4SM -SN VV005
     FM171200 00000KT 1 1/2SM -SN BKN006 OVC015
     FM171500 32006KT 5SM -SN BR SCT015 OVC025
     FM171800 31010KT P6SM SCT025 BKN040
     FM172300 33007KT P6SM SCT250=

USA.gov is the U.S. government's official web portal to all federal, state and local government web resources and services.